Indianapolis, IN

10:08 PM EDT on July 30, 2016 (GMT -0400)
Indianapolis International | | Change Station

Elev 807 ft 39.71 °N, 86.30 °W | Updated 14 minutes ago

Mostly Cloudy
Mostly Cloudy
75 °F
Feels Like 75 °F
N
5
Wind Variable Wind from West

Today
High -- | Low -- °F
--% Chance of Precip.
Yesterday
High -- | Low -- °F
Precip. -- in
Pressure 29.95 in
Visibility 10.0 miles
Clouds Few 4500 ft
Mostly Cloudy 8000 ft
Mostly Cloudy 25000 ft
Dew Point 66 °F
Humidity 73%
Rainfall 0.00 in
Snow Depth Not available.
6:42 AM 8:59 PM
Waning Crescent, 9% visible
METAR KIND 310154Z 26004KT 10SM FEW045 BKN080 BKN250 24/19 A2997 RMK AO2 SLP141 CB DSNT W-NE MOV E T02390189
Pressure 29.95 in
Visibility 10.0 miles
Clouds Few 4500 ft
Mostly Cloudy 8000 ft
Mostly Cloudy 25000 ft
Dew Point 66 °F
Humidity 73%
Rainfall 0.00 in
Snow Depth Not available.
6:42 AM 8:59 PM
Waning Crescent, 9% visible
METAR KIND 310154Z 26004KT 10SM FEW045 BKN080 BKN250 24/19 A2997 RMK AO2 SLP141 CB DSNT W-NE MOV E T02390189

10-Day Weather Forecast

Almanac

Astronomy

Jul. 30, 2016 Rise Set
Actual Time
Civil Twilight
Nautical Twilight
Astronomical Twilight
Moon
Length of Visible Light
Length of Day
Tomorrow will be .
, % of the Moon is Illuminated

Today's Extremes

State Highs State Lows

Community

WunderPhotos

Upload Photos

1,928,706 photos uploaded!

WunderBlog® & News

Nearby

Air Quality

  Air Quality AQ Index Pollutant
Not available.

Snow Depth

Station Depth Elevation

Earthquake Activity

City Distance Mag. Time & Date
Minimum magnitude displayed is 2.5.

Coastal Water Temperatures

Place Temperature

Stations

Nearby Weather Stations

Station Location Temp. Windchill Dew Point Humidity Wind Precip. Elev Updated Type
                   

Watches & Warnings

There are currently no watches in effect.